createdAt,value
2018-04-24T00:00:59.513Z,1923.40
2018-04-24T00:01:59.509Z,1920.70
2018-04-24T00:02:59.507Z,1890.50
2018-04-24T00:03:59.503Z,1846.90
2018-04-24T00:04:59.502Z,1939.40
2018-04-24T00:05:59.499Z,1899.30
2018-04-24T00:06:59.495Z,1876.50
2018-04-24T00:07:59.489Z,1817.80
2018-04-24T00:08:59.483Z,1844.90
2018-04-24T00:09:59.479Z,1823.20
2018-04-24T00:10:59.477Z,1774.60
2018-04-24T00:11:59.473Z,1804.10
2018-04-24T00:12:59.468Z,1711.10
2018-04-24T00:13:59.465Z,1713.80
2018-04-24T00:14:59.463Z,1703.20
2018-04-24T00:15:59.461Z,1726.70
2018-04-24T00:16:59.458Z,1588.90
2018-04-24T00:17:59.455Z,1643.40
2018-04-24T00:18:59.453Z,1700.10
2018-04-24T00:19:59.447Z,1676.00
2018-04-24T00:20:59.438Z,1665.30
2018-04-24T00:21:59.443Z,1616.20
2018-04-24T00:22:59.438Z,1550.80
2018-04-24T00:23:59.429Z,1466.60
2018-04-24T00:24:59.424Z,1549.50
2018-04-24T00:25:59.435Z,1533.30
2018-04-24T00:26:59.416Z,1502.50
2018-04-24T00:27:59.413Z,1509.30
2018-04-24T00:28:59.408Z,1504.10
2018-04-24T00:29:59.406Z,1494.40
2018-04-24T00:30:59.410Z,1419.30
2018-04-24T00:31:59.402Z,1466.20
2018-04-24T00:32:59.393Z,1471.60
2018-04-24T00:33:59.391Z,1446.30
2018-04-24T00:34:59.389Z,1437.70
2018-04-24T00:35:59.382Z,1461.90
2018-04-24T00:36:59.382Z,1486.30
2018-04-24T00:37:59.378Z,1500.90
2018-04-24T00:38:59.371Z,1491.70
2018-04-24T00:39:59.367Z,1453.60
2018-04-24T00:40:59.363Z,1409.80
2018-04-24T00:41:59.359Z,1414.30
2018-04-24T00:42:59.355Z,1478.30
2018-04-24T00:43:59.353Z,1521.50
2018-04-24T00:44:59.348Z,1520.10
2018-04-24T00:45:59.344Z,1431.30
2018-04-24T00:46:59.340Z,1438.10
2018-04-24T00:47:59.336Z,1463.50
2018-04-24T00:48:59.335Z,1415.30
2018-04-24T00:49:59.332Z,1372.30
2018-04-24T00:50:59.331Z,1315.30
2018-04-24T00:51:59.324Z,1305.10
2018-04-24T00:52:59.316Z,1320.90
2018-04-24T00:53:59.312Z,1309.70
2018-04-24T00:54:59.308Z,1350.00
2018-04-24T00:55:59.304Z,1295.50
2018-04-24T00:56:59.299Z,1308.80
2018-04-24T00:57:59.296Z,1377.40
2018-04-24T00:58:59.293Z,1261.60
2018-04-24T00:59:59.288Z,1268.40
2018-04-24T01:00:59.283Z,1376.00
2018-04-24T01:01:59.280Z,1306.90
2018-04-24T01:02:59.280Z,1337.50
2018-04-24T01:03:59.276Z,1378.20
2018-04-24T01:04:59.267Z,1375.30
2018-04-24T01:05:59.263Z,1390.70
2018-04-24T01:06:59.260Z,1383.30
2018-04-24T01:07:59.256Z,1352.10
2018-04-24T01:08:59.255Z,1376.80
2018-04-24T01:09:59.251Z,1397.40
2018-04-24T01:10:59.245Z,1460.30
2018-04-24T01:11:59.241Z,1477.90
2018-04-24T01:12:59.241Z,1439.40
2018-04-24T01:13:59.232Z,1514.80
2018-04-24T01:14:59.230Z,1489.30
2018-04-24T01:15:59.224Z,1546.20
2018-04-24T01:16:59.248Z,1519.90
2018-04-24T01:17:59.216Z,1484.60
2018-04-24T01:18:59.211Z,1538.70
2018-04-24T01:19:59.208Z,1590.20
2018-04-24T01:20:59.207Z,1442.60
2018-04-24T01:21:59.203Z,1474.90
2018-04-24T01:22:59.199Z,1494.40
2018-04-24T01:23:59.197Z,1493.70
2018-04-24T01:24:59.186Z,1513.30
2018-04-24T01:25:59.186Z,1481.80
2018-04-24T01:26:59.180Z,1529.30
2018-04-24T01:27:59.175Z,1494.90
2018-04-24T01:28:59.172Z,1478.80
2018-04-24T01:29:59.167Z,1595.70
2018-04-24T01:30:59.165Z,1609.80
2018-04-24T01:31:59.158Z,1641.60
2018-04-24T01:32:59.153Z,1662.90
2018-04-24T01:33:59.150Z,1595.10
2018-04-24T01:34:59.149Z,1562.00
2018-04-24T01:35:59.145Z,1610.30
2018-04-24T01:36:59.136Z,1634.80
2018-04-24T01:37:59.132Z,1666.50
2018-04-24T01:38:59.128Z,1682.20
2018-04-24T01:39:59.125Z,1570.70
2018-04-24T01:40:59.123Z,1579.90
2018-04-24T01:41:59.120Z,1745.10
2018-04-24T01:42:59.112Z,1546.20
2018-04-24T01:43:59.107Z,1496.20
2018-04-24T01:44:59.105Z,1537.90
2018-04-24T01:45:59.098Z,1558.60
2018-04-24T01:46:59.095Z,1506.40
2018-04-24T01:47:59.092Z,1489.00
2018-04-24T01:48:59.084Z,1575.30
2018-04-24T01:49:59.081Z,1520.00
2018-04-24T01:50:59.080Z,1583.60
2018-04-24T01:51:59.072Z,1582.30
2018-04-24T01:52:59.071Z,1660.30
2018-04-24T01:53:59.067Z,1676.00
2018-04-24T01:54:59.066Z,1625.60
2018-04-24T01:55:59.061Z,1647.20
2018-04-24T01:56:59.049Z,1598.50
2018-04-24T01:57:59.045Z,1664.90
2018-04-24T01:58:59.042Z,1744.60
2018-04-24T01:59:59.040Z,1693.30
2018-04-24T02:00:59.032Z,1698.40
2018-04-24T02:01:59.030Z,1668.30
2018-04-24T02:02:59.025Z,1708.00
2018-04-24T02:03:59.024Z,1707.90
2018-04-24T02:04:59.015Z,1754.60
2018-04-24T02:05:59.011Z,1710.50
2018-04-24T02:06:59.010Z,1702.20
2018-04-24T02:07:59.005Z,1742.90
2018-04-24T02:08:58.996Z,1764.40
2018-04-24T02:09:58.994Z,1818.50
2018-04-24T02:10:58.988Z,1789.40
2018-04-24T02:11:58.983Z,1738.30
2018-04-24T02:12:58.978Z,1724.90
2018-04-24T02:13:58.975Z,1761.80
2018-04-24T02:14:58.973Z,1827.70
2018-04-24T02:15:58.969Z,1827.00
2018-04-24T02:16:58.960Z,1787.60
2018-04-24T02:17:58.954Z,1759.00
2018-04-24T02:18:58.955Z,1803.50
2018-04-24T02:19:58.950Z,1784.80
2018-04-24T02:20:58.941Z,1839.30
2018-04-24T02:21:58.937Z,1775.90
2018-04-24T02:22:58.932Z,1765.00
2018-04-24T02:23:58.929Z,1803.50
2018-04-24T02:24:58.925Z,1834.00
2018-04-24T02:25:58.918Z,1800.20
2018-04-24T02:26:58.916Z,1847.70
2018-04-24T02:27:58.910Z,1851.10
2018-04-24T02:28:58.905Z,1800.70
2018-04-24T02:29:58.901Z,1805.30
2018-04-24T02:30:58.896Z,1824.20
2018-04-24T02:31:58.893Z,1816.50
2018-04-24T02:32:58.894Z,1791.10
2018-04-24T02:33:58.887Z,1798.60
2018-04-24T02:34:58.878Z,1788.30
2018-04-24T02:35:58.874Z,1777.60
2018-04-24T02:36:58.872Z,1791.60
2018-04-24T02:37:58.868Z,1770.20
2018-04-24T02:38:58.860Z,1790.50
2018-04-24T02:39:58.867Z,1778.00
2018-04-24T02:40:58.849Z,1840.40
2018-04-24T02:41:58.855Z,1782.50
2018-04-24T02:42:58.844Z,1769.50
2018-04-24T02:43:58.836Z,1797.70
2018-04-24T02:44:58.831Z,1768.90
2018-04-24T02:45:58.826Z,1762.00
2018-04-24T02:46:58.826Z,1741.30
2018-04-24T02:47:58.820Z,1795.00
2018-04-24T02:48:58.813Z,1772.40
2018-04-24T02:49:58.807Z,1749.30
2018-04-24T02:50:58.805Z,1739.90
2018-04-24T02:51:58.801Z,1755.30
2018-04-24T02:52:58.792Z,1743.60
2018-04-24T02:53:58.789Z,1738.30
2018-04-24T02:54:58.783Z,1764.20
2018-04-24T02:55:58.778Z,1729.80
2018-04-24T02:56:58.773Z,1738.00
2018-04-24T02:57:58.772Z,1691.90
2018-04-24T02:58:58.763Z,1788.40
2018-04-24T02:59:58.759Z,1711.80
2018-04-24T03:00:58.753Z,1722.90
2018-04-24T03:01:58.753Z,1872.80
2018-04-24T03:02:58.744Z,1738.80
2018-04-24T03:03:58.747Z,1682.60
2018-04-24T03:04:58.737Z,1680.60
2018-04-24T03:05:58.735Z,1716.60
2018-04-24T03:06:58.724Z,1675.00
2018-04-24T03:07:58.721Z,1668.50
2018-04-24T03:08:58.717Z,1652.00
2018-04-24T03:09:58.716Z,1621.90
2018-04-24T03:10:58.710Z,1687.60
2018-04-24T03:11:58.701Z,1654.70
2018-04-24T03:12:58.695Z,1685.40
2018-04-24T03:13:58.689Z,1681.40
2018-04-24T03:14:58.684Z,1614.50
2018-04-24T03:15:58.681Z,1658.70
2018-04-24T03:16:58.678Z,1650.00
2018-04-24T03:17:58.673Z,1696.70
2018-04-24T03:18:58.665Z,1605.10
2018-04-24T03:19:58.661Z,1611.10
2018-04-24T03:20:58.656Z,1680.10
2018-04-24T03:21:58.650Z,1616.20
2018-04-24T03:22:58.645Z,1601.80
2018-04-24T03:23:58.640Z,1674.70
2018-04-24T03:24:58.635Z,1622.00
2018-04-24T03:25:58.630Z,1654.00
2018-04-24T03:26:58.626Z,1637.90
2018-04-24T03:27:58.620Z,1690.70
2018-04-24T03:28:58.620Z,1660.50
2018-04-24T03:29:58.616Z,1667.60
2018-04-24T03:30:58.610Z,1601.40
2018-04-24T03:31:58.605Z,1628.80
2018-04-24T03:32:58.595Z,1614.90
2018-04-24T03:33:58.590Z,1620.30
2018-04-24T03:34:58.586Z,1586.50
2018-04-24T03:35:58.582Z,1605.60
2018-04-24T03:36:58.577Z,1612.80
2018-04-24T03:37:58.572Z,1616.20
2018-04-24T03:38:58.571Z,1610.10
2018-04-24T03:39:58.562Z,1597.10
2018-04-24T03:40:58.557Z,1597.50
2018-04-24T03:41:58.552Z,1581.80
2018-04-24T03:42:58.550Z,1606.60
2018-04-24T03:43:58.545Z,1623.20
2018-04-24T03:44:58.536Z,1587.40
2018-04-24T03:45:58.531Z,1606.10
2018-04-24T03:46:58.525Z,1590.20
2018-04-24T03:47:58.520Z,1595.80
2018-04-24T03:48:58.519Z,1598.70
2018-04-24T03:49:58.515Z,1583.30
2018-04-24T03:50:58.511Z,1645.20
2018-04-24T03:51:58.503Z,1673.60
2018-04-24T03:52:58.495Z,1635.10
2018-04-24T03:53:58.491Z,1596.70
2018-04-24T03:54:58.485Z,1601.80
2018-04-24T03:55:58.481Z,1569.50
2018-04-24T03:56:58.480Z,1598.60
2018-04-24T03:57:58.470Z,1596.50
2018-04-24T03:58:58.469Z,1566.40
2018-04-24T03:59:58.464Z,1553.70
2018-04-24T04:00:58.459Z,1595.10
2018-04-24T04:01:58.456Z,1554.10
2018-04-24T04:02:58.449Z,1616.60
2018-04-24T04:03:58.452Z,1667.80
2018-04-24T04:04:58.435Z,1574.30
2018-04-24T04:05:58.432Z,1560.70
2018-04-24T04:06:58.426Z,1522.70
2018-04-24T04:07:58.422Z,1573.20
2018-04-24T04:08:58.415Z,1566.60
2018-04-24T04:09:58.411Z,1568.30
2018-04-24T04:10:58.406Z,1557.40
2018-04-24T04:11:58.401Z,1513.20
2018-04-24T04:12:58.396Z,1656.70
2018-04-24T04:13:58.398Z,1569.60
2018-04-24T04:14:58.389Z,1591.50
2018-04-24T04:15:58.464Z,1562.00
2018-04-24T04:16:58.375Z,1578.00
2018-04-24T04:17:58.370Z,1558.60
2018-04-24T04:18:58.365Z,1594.90
2018-04-24T04:19:58.360Z,1580.10
2018-04-24T04:20:58.355Z,1665.70
2018-04-24T04:21:58.350Z,1628.50
2018-04-24T04:22:58.349Z,1713.90
2018-04-24T04:23:58.344Z,1573.60
2018-04-24T04:24:58.334Z,1601.40
2018-04-24T04:25:58.329Z,1626.30
2018-04-24T04:26:58.332Z,1553.80
2018-04-24T04:27:58.327Z,1528.60
2018-04-24T04:28:58.315Z,1622.60
2018-04-24T04:29:58.309Z,1545.40
2018-04-24T04:30:58.306Z,1577.90
2018-04-24T04:31:58.300Z,1481.50
2018-04-24T04:32:58.325Z,1525.40
2018-04-24T04:33:58.341Z,1547.00
2018-04-24T04:34:58.284Z,1539.90
2018-04-24T04:35:58.347Z,1506.90
2018-04-24T04:36:58.274Z,1546.60
2018-04-24T04:37:58.269Z,1606.20
2018-04-24T04:38:58.264Z,1558.50
2018-04-24T04:39:58.260Z,1544.90
2018-04-24T04:40:58.258Z,1572.00
2018-04-24T04:41:58.254Z,1594.40
2018-04-24T04:42:58.249Z,1572.30
2018-04-24T04:43:58.244Z,1581.00
2018-04-24T04:44:58.239Z,1591.70
2018-04-24T04:45:58.234Z,1587.20
2018-04-24T04:46:58.225Z,1641.70
2018-04-24T04:47:58.221Z,1639.20
2018-04-24T04:48:58.216Z,1601.80
2018-04-24T04:49:58.211Z,1615.90
2018-04-24T04:50:58.209Z,1635.30
2018-04-24T04:51:58.202Z,1634.80
2018-04-24T04:52:58.197Z,1646.30
2018-04-24T04:53:58.193Z,1644.90
2018-04-24T04:54:58.195Z,1661.70
2018-04-24T04:55:58.187Z,1654.10
2018-04-24T04:56:58.177Z,1706.60
2018-04-24T04:57:58.177Z,1662.40
2018-04-24T04:58:58.173Z,1649.60
2018-04-24T04:59:58.169Z,1676.10
2018-04-24T05:00:58.159Z,1713.40
2018-04-24T05:01:58.155Z,1686.10
2018-04-24T05:02:58.151Z,1698.40
2018-04-24T05:03:58.146Z,1729.70
2018-04-24T05:04:58.140Z,1729.50
2018-04-24T05:05:58.136Z,1755.20
2018-04-24T05:06:58.137Z,1715.70
2018-04-24T05:07:58.128Z,1698.10
2018-04-24T05:08:58.122Z,1698.90
2018-04-24T05:09:58.117Z,1743.00
2018-04-24T05:10:58.114Z,1704.00
2018-04-24T05:11:58.135Z,1696.00
2018-04-24T05:12:58.109Z,1726.30
2018-04-24T05:13:58.106Z,1752.80
2018-04-24T05:14:58.096Z,1738.60
2018-04-24T05:15:58.093Z,1742.30
2018-04-24T05:16:58.091Z,1733.80
2018-04-24T05:17:58.092Z,1729.20
2018-04-24T05:18:58.078Z,1740.90
2018-04-24T05:19:58.076Z,1714.50
2018-04-24T05:20:58.069Z,1715.00
2018-04-24T05:21:58.066Z,1728.70
2018-04-24T05:22:58.061Z,1773.00
2018-04-24T05:23:58.061Z,1821.60
2018-04-24T05:24:58.056Z,1758.90
2018-04-24T05:25:58.052Z,1722.50
2018-04-24T05:26:58.044Z,1775.50
2018-04-24T05:27:58.040Z,1736.30
2018-04-24T05:28:58.035Z,1727.30
2018-04-24T05:29:58.032Z,1764.10
2018-04-24T05:30:58.029Z,1745.10
2018-04-24T05:31:58.024Z,1739.10
2018-04-24T05:32:58.018Z,1772.40
2018-04-24T05:33:58.091Z,1766.50
2018-04-24T05:34:58.011Z,1765.10
2018-04-24T05:35:58.012Z,1746.60
2018-04-24T05:36:58.009Z,1743.90
2018-04-24T05:37:58.002Z,1793.50
2018-04-24T05:38:57.998Z,1756.30
2018-04-24T05:39:57.994Z,1713.60
2018-04-24T05:40:57.987Z,1740.00
2018-04-24T05:41:57.982Z,1687.00
2018-04-24T05:42:57.978Z,1598.10
2018-04-24T05:43:57.975Z,1692.70
2018-04-24T05:44:57.974Z,1643.40
2018-04-24T05:45:57.969Z,1651.00
2018-04-24T05:46:57.963Z,1614.10
2018-04-24T05:47:57.958Z,1670.70
2018-04-24T05:48:57.953Z,1629.40
2018-04-24T05:49:57.950Z,1627.80
2018-04-24T05:50:57.950Z,1592.70
2018-04-24T05:51:57.946Z,1573.80
2018-04-24T05:52:58.003Z,1693.10
2018-04-24T05:53:57.934Z,1568.00
2018-04-24T05:54:57.930Z,1542.00
2018-04-24T05:55:57.927Z,1472.30
2018-04-24T05:56:57.927Z,1453.50
2018-04-24T05:57:57.922Z,134.80
2018-04-24T05:58:57.915Z,52.40
2018-04-24T05:59:57.912Z,52.40
2018-04-24T06:00:57.906Z,44.40
2018-04-24T06:01:57.903Z,26.70
2018-04-24T06:02:57.911Z,65.30
2018-04-24T06:03:57.897Z,119.90
2018-04-24T06:04:57.891Z,342.20
2018-04-24T06:05:57.889Z,44.70
2018-04-24T06:06:57.885Z,34.20
2018-04-24T06:07:57.882Z,45.10
2018-04-24T06:08:57.881Z,30.40
2018-04-24T06:09:57.878Z,28.80
2018-04-24T06:10:57.875Z,22.40
2018-04-24T06:11:57.871Z,17.40
2018-04-24T06:12:57.863Z,21.40
2018-04-24T06:13:57.860Z,30.70
2018-04-24T06:14:57.946Z,51.60
2018-04-24T06:15:57.853Z,46.70
2018-04-24T06:16:57.848Z,24.20
2018-04-24T06:17:57.848Z,19.30
2018-04-24T06:18:57.842Z,96.00
2018-04-24T06:19:57.845Z,23.70
2018-04-24T06:20:57.841Z,20.10
2018-04-24T06:21:57.832Z,23.60
2018-04-24T06:22:57.837Z,16.70
2018-04-24T06:23:57.831Z,17.00
2018-04-24T06:24:57.824Z,15.60
2018-04-24T06:25:57.820Z,18.20
2018-04-24T06:26:57.817Z,22.60
2018-04-24T06:27:57.817Z,21.50
2018-04-24T06:28:57.810Z,1999.90
2018-04-24T06:29:57.808Z,1999.90
2018-04-24T06:30:57.809Z,1999.90
2018-04-24T06:31:57.808Z,1999.90
2018-04-24T06:32:57.801Z,1999.90
2018-04-24T06:33:57.796Z,1999.90
2018-04-24T06:34:57.798Z,1999.90
2018-04-24T06:35:57.880Z,1999.90
2018-04-24T06:36:57.787Z,1999.90
2018-04-24T06:37:57.786Z,1999.90
2018-04-24T06:38:57.783Z,1999.90
2018-04-24T06:39:57.780Z,1999.90
2018-04-24T06:40:57.777Z,1999.90
2018-04-24T06:41:57.775Z,1999.90
2018-04-24T06:42:57.772Z,1999.90
2018-04-24T06:43:57.770Z,1999.90
2018-04-24T06:44:57.767Z,1999.90
2018-04-24T06:45:57.764Z,1999.90
2018-04-24T06:46:57.763Z,1999.90
2018-04-24T06:47:57.766Z,1999.90
2018-04-24T06:48:57.762Z,1999.90
2018-04-24T06:49:57.758Z,1999.90
2018-04-24T06:50:57.756Z,1999.90
2018-04-24T06:51:57.751Z,1999.90
2018-04-24T06:52:57.752Z,1371.90
2018-04-24T06:53:57.750Z,1999.90
2018-04-24T06:54:57.813Z,1999.90
2018-04-24T06:55:57.743Z,1999.90
2018-04-24T06:56:57.739Z,1999.90
2018-04-24T06:57:57.742Z,1999.90
2018-04-24T06:58:57.736Z,1999.90
2018-04-24T06:59:57.734Z,1999.90
2018-04-24T07:00:57.732Z,1999.90
2018-04-24T07:01:57.729Z,1999.90
2018-04-24T07:02:57.731Z,1999.90
2018-04-24T07:03:57.730Z,1999.90
2018-04-24T07:04:57.722Z,1999.90
2018-04-24T07:05:57.721Z,1999.90
2018-04-24T07:06:57.722Z,1999.90
2018-04-24T07:07:57.721Z,1999.90
2018-04-24T07:08:57.716Z,1999.90
2018-04-24T07:09:57.713Z,1999.90
2018-04-24T07:10:57.710Z,1999.90
2018-04-24T07:11:57.711Z,1999.90
2018-04-24T07:12:57.706Z,1999.90
2018-04-24T07:13:57.713Z,1999.90
2018-04-24T07:14:57.702Z,1999.90
2018-04-24T07:15:57.699Z,1999.90
2018-04-24T07:16:57.735Z,1999.90
2018-04-24T07:17:57.694Z,1999.90
2018-04-24T07:18:57.692Z,1999.90
2018-04-24T07:19:57.690Z,1999.90
2018-04-24T07:20:57.691Z,1999.90
2018-04-24T07:21:57.690Z,1999.90
2018-04-24T07:22:57.684Z,1999.90
2018-04-24T07:23:57.682Z,1999.90
2018-04-24T07:24:57.683Z,1999.90
2018-04-24T07:25:57.681Z,1999.90
2018-04-24T07:26:57.675Z,1999.90
2018-04-24T07:27:57.675Z,1999.90
2018-04-24T07:28:57.672Z,1999.90
2018-04-24T07:29:57.668Z,1999.90
2018-04-24T07:30:57.667Z,1999.90
2018-04-24T07:31:57.665Z,1999.90
2018-04-24T07:32:57.746Z,1999.90
2018-04-24T07:33:57.664Z,1999.90
2018-04-24T07:34:57.659Z,1999.90
2018-04-24T07:35:57.656Z,1999.90
2018-04-24T07:36:57.654Z,1999.90
2018-04-24T07:37:57.651Z,1999.90
2018-04-24T07:38:57.651Z,1999.90
2018-04-24T07:39:57.647Z,1999.90
2018-04-24T07:40:57.700Z,1999.90
2018-04-24T07:41:57.644Z,1999.90
2018-04-24T07:42:57.641Z,1999.90
2018-04-24T07:43:57.639Z,1999.90
2018-04-24T07:44:57.638Z,1999.90
2018-04-24T07:45:57.637Z,1999.90
2018-04-24T07:46:57.635Z,1999.90
2018-04-24T07:47:57.632Z,1999.90
2018-04-24T07:48:57.625Z,1999.90
2018-04-24T07:49:57.623Z,1999.90
2018-04-24T07:50:57.621Z,1999.90
2018-04-24T07:51:57.619Z,1999.90
2018-04-24T07:52:57.617Z,1999.90
2018-04-24T07:53:57.612Z,1999.90
2018-04-24T07:54:57.613Z,1999.90
2018-04-24T07:55:57.610Z,1999.90
2018-04-24T07:56:57.609Z,1999.90
2018-04-24T07:57:57.604Z,1999.90
2018-04-24T07:58:57.605Z,1999.90
2018-04-24T07:59:57.602Z,1999.90
2018-04-24T08:00:57.597Z,1999.90
2018-04-24T08:01:57.593Z,1999.90
2018-04-24T08:02:57.596Z,1999.90
2018-04-24T08:03:57.589Z,1999.90
2018-04-24T08:04:57.590Z,1999.90
2018-04-24T08:05:57.587Z,1999.90
2018-04-24T08:06:57.582Z,1999.90
2018-04-24T08:07:57.585Z,1999.90
2018-04-24T08:08:57.577Z,1999.90
2018-04-24T08:09:57.575Z,1114.30
2018-04-24T08:10:57.573Z,385.00
2018-04-24T08:11:57.573Z,1712.10
2018-04-24T08:12:57.568Z,483.30
2018-04-24T08:13:57.564Z,602.50
2018-04-24T08:14:57.563Z,498.40
2018-04-24T08:15:57.560Z,759.90
2018-04-24T08:16:57.561Z,90.10
2018-04-24T08:17:57.559Z,70.50
2018-04-24T08:18:57.558Z,23.70
2018-04-24T08:19:57.555Z,23.40
2018-04-24T08:20:57.548Z,20.10
2018-04-24T08:21:57.546Z,23.20
2018-04-24T08:22:57.578Z,26.50
2018-04-24T08:23:57.542Z,21.40
2018-04-24T08:24:57.538Z,37.50
2018-04-24T08:25:57.537Z,128.00
2018-04-24T08:26:57.534Z,40.70
2018-04-24T08:27:57.531Z,26.80
2018-04-24T08:28:57.529Z,26.60
2018-04-24T08:29:57.526Z,21.90
2018-04-24T08:30:57.530Z,58.60
2018-04-24T08:31:57.526Z,32.80
2018-04-24T08:32:57.518Z,29.60
2018-04-24T08:33:57.516Z,22.30
2018-04-24T08:34:57.518Z,21.60
2018-04-24T08:35:57.513Z,23.30
2018-04-24T08:36:57.509Z,18.00
2018-04-24T08:37:57.508Z,18.20
2018-04-24T08:38:57.514Z,21.50
2018-04-24T08:39:57.514Z,21.20
2018-04-24T08:40:57.499Z,22.10
2018-04-24T08:41:57.497Z,21.80
2018-04-24T08:42:57.501Z,20.60
2018-04-24T08:43:57.498Z,17.80
2018-04-24T08:44:57.489Z,21.60
2018-04-24T08:45:57.489Z,21.00
2018-04-24T08:46:57.486Z,18.30
2018-04-24T08:47:57.565Z,25.30
2018-04-24T08:48:57.482Z,17.70
2018-04-24T08:49:57.481Z,20.70
2018-04-24T08:50:57.477Z,23.40
2018-04-24T08:51:57.478Z,40.10
2018-04-24T08:52:57.472Z,23.60
2018-04-24T08:53:57.471Z,18.70
2018-04-24T08:54:57.470Z,480.70
2018-04-24T08:55:57.466Z,25.80
2018-04-24T08:56:57.468Z,69.30
2018-04-24T08:57:57.465Z,25.70
2018-04-24T08:58:57.459Z,22.70
2018-04-24T08:59:57.460Z,23.50
2018-04-24T09:00:57.458Z,23.50
2018-04-24T09:01:57.473Z,23.90
2018-04-24T09:02:57.451Z,35.70
2018-04-24T09:03:57.447Z,23.50
2018-04-24T09:04:57.445Z,21.30
2018-04-24T09:05:57.441Z,26.80
2018-04-24T09:06:57.447Z,52.00
2018-04-24T09:07:57.438Z,24.90
2018-04-24T09:08:57.435Z,26.60
2018-04-24T09:09:57.432Z,46.10
2018-04-24T09:10:57.433Z,148.50
2018-04-24T09:11:57.431Z,87.50
2018-04-24T09:12:57.424Z,228.70
2018-04-24T09:13:57.474Z,265.50
2018-04-24T09:14:57.424Z,200.40
2018-04-24T09:15:57.424Z,186.90
2018-04-24T09:16:57.414Z,429.40
2018-04-24T09:17:57.411Z,327.30
2018-04-24T09:18:57.410Z,457.30
2018-04-24T09:19:57.411Z,726.30
2018-04-24T09:20:57.406Z,345.60
2018-04-24T09:21:57.400Z,312.40
2018-04-24T09:22:57.398Z,407.80
2018-04-24T09:23:57.396Z,463.20
2018-04-24T09:24:57.391Z,318.70
2018-04-24T09:25:57.389Z,253.00
2018-04-24T09:26:57.420Z,147.20
2018-04-24T09:27:57.384Z,237.00
2018-04-24T09:28:57.386Z,247.30
2018-04-24T09:29:57.382Z,371.00
2018-04-24T09:30:57.375Z,251.50
2018-04-24T09:31:57.374Z,180.30
2018-04-24T09:32:57.378Z,213.40
2018-04-24T09:33:57.372Z,366.60
2018-04-24T09:34:57.366Z,248.60
2018-04-24T09:35:57.363Z,206.10
2018-04-24T09:36:57.361Z,161.30
2018-04-24T09:37:57.358Z,109.00
2018-04-24T09:38:57.416Z,40.50
2018-04-24T09:39:57.354Z,63.60
2018-04-24T09:40:57.350Z,47.90
2018-04-24T09:41:57.351Z,30.20
2018-04-24T09:42:57.350Z,31.90
2018-04-24T09:43:57.377Z,40.20
2018-04-24T09:44:57.343Z,24.80
2018-04-24T09:45:57.428Z,28.70
2018-04-24T09:46:57.342Z,37.80
2018-04-24T09:47:57.340Z,47.10
2018-04-24T09:48:57.395Z,31.10
2018-04-24T09:49:57.331Z,73.00
2018-04-24T09:50:57.329Z,107.90
2018-04-24T09:51:57.328Z,61.10
2018-04-24T09:52:57.324Z,62.10
2018-04-24T09:53:57.322Z,92.30
2018-04-24T09:54:57.321Z,119.20
2018-04-24T09:55:57.320Z,64.80
2018-04-24T09:56:57.316Z,111.20
2018-04-24T09:57:57.317Z,78.90
2018-04-24T09:58:57.313Z,82.60
2018-04-24T09:59:57.311Z,111.60
2018-04-24T10:00:57.312Z,47.80
2018-04-24T10:01:57.313Z,30.60
2018-04-24T10:02:57.304Z,32.40
2018-04-24T10:03:57.304Z,49.50
2018-04-24T10:04:57.303Z,82.60
2018-04-24T10:05:57.303Z,34.20
2018-04-24T10:06:57.298Z,64.90
2018-04-24T10:07:57.295Z,108.00
2018-04-24T10:08:57.292Z,108.80
2018-04-24T10:09:57.291Z,59.30
2018-04-24T10:10:57.289Z,48.60
2018-04-24T10:11:57.287Z,42.10
2018-04-24T10:12:57.310Z,29.60
2018-04-24T10:13:57.287Z,23.50
2018-04-24T10:14:57.286Z,25.30
2018-04-24T10:15:57.285Z,27.70
2018-04-24T10:16:57.277Z,20.20
2018-04-24T10:17:57.277Z,24.60
2018-04-24T10:18:57.282Z,25.40
2018-04-24T10:19:57.277Z,29.50
2018-04-24T10:20:57.271Z,26.20
2018-04-24T10:21:57.270Z,25.60
2018-04-24T10:22:57.267Z,24.30
2018-04-24T10:23:57.266Z,22.70
2018-04-24T10:24:57.264Z,20.70
2018-04-24T10:25:57.266Z,22.70
2018-04-24T10:26:57.268Z,27.20
2018-04-24T10:27:57.260Z,27.10
2018-04-24T10:28:57.258Z,23.40
2018-04-24T10:29:57.257Z,23.00
2018-04-24T10:30:57.255Z,22.00
2018-04-24T10:31:57.254Z,25.70
2018-04-24T10:32:57.255Z,24.00
2018-04-24T10:33:57.254Z,23.00
2018-04-24T10:34:57.248Z,56.80
2018-04-24T10:35:57.248Z,19.50
2018-04-24T10:36:57.248Z,20.10
2018-04-24T10:37:57.246Z,22.80
2018-04-24T10:38:57.253Z,23.20
2018-04-24T10:39:57.240Z,23.10
2018-04-24T10:40:57.237Z,22.40
2018-04-24T10:41:57.236Z,21.00
2018-04-24T10:42:57.234Z,22.10
2018-04-24T10:43:57.234Z,20.80
2018-04-24T10:44:57.234Z,20.40
2018-04-24T10:45:57.233Z,20.20
2018-04-24T10:46:57.228Z,19.80
2018-04-24T10:47:57.249Z,25.20
2018-04-24T10:48:57.224Z,22.10
2018-04-24T10:49:57.230Z,19.30
2018-04-24T10:50:57.225Z,24.70
2018-04-24T10:51:57.221Z,22.20
2018-04-24T10:52:57.219Z,18.90
2018-04-24T10:53:57.218Z,18.60
2018-04-24T10:54:57.216Z,20.40
2018-04-24T10:55:57.249Z,20.50
2018-04-24T10:56:57.218Z,22.10
2018-04-24T10:57:57.215Z,19.70
2018-04-24T10:58:57.217Z,23.80
2018-04-24T10:59:57.214Z,24.60
2018-04-24T11:00:57.210Z,20.10
2018-04-24T11:01:57.206Z,19.10
2018-04-24T11:02:57.205Z,21.10
2018-04-24T11:03:57.207Z,20.80
2018-04-24T11:04:57.201Z,22.90
2018-04-24T11:05:57.200Z,19.90
2018-04-24T11:06:57.201Z,19.90
2018-04-24T11:07:57.199Z,18.30
2018-04-24T11:08:57.196Z,18.30
2018-04-24T11:09:57.194Z,17.80
2018-04-24T11:10:57.196Z,18.90
2018-04-24T11:11:57.261Z,20.80
2018-04-24T11:12:57.192Z,21.00
2018-04-24T11:13:57.190Z,19.70
2018-04-24T11:14:57.186Z,18.10
2018-04-24T11:15:57.185Z,19.50
2018-04-24T11:16:57.188Z,17.40
2018-04-24T11:17:57.186Z,19.60
2018-04-24T11:18:57.181Z,20.50
2018-04-24T11:19:57.180Z,18.10
2018-04-24T11:20:57.252Z,17.80
2018-04-24T11:21:57.186Z,18.90
2018-04-24T11:22:57.176Z,22.20
2018-04-24T11:23:57.178Z,15.70
2018-04-24T11:24:57.174Z,20.00
2018-04-24T11:25:57.171Z,21.80
2018-04-24T11:26:57.170Z,21.00
2018-04-24T11:27:57.171Z,22.50
2018-04-24T11:28:57.173Z,48.60
2018-04-24T11:29:57.171Z,17.10
2018-04-24T11:30:57.171Z,21.20
2018-04-24T11:31:57.173Z,21.50
2018-04-24T11:32:57.164Z,19.90
2018-04-24T11:33:57.164Z,19.60
2018-04-24T11:34:57.163Z,18.10
2018-04-24T11:35:57.174Z,18.10
2018-04-24T11:36:57.161Z,18.90
2018-04-24T11:37:57.161Z,20.70
2018-04-24T11:38:57.160Z,16.70
2018-04-24T11:39:57.160Z,19.30
2018-04-24T11:40:57.158Z,16.40
2018-04-24T11:41:57.156Z,16.00
2018-04-24T11:42:57.160Z,15.90
2018-04-24T11:43:57.172Z,16.80
2018-04-24T11:44:57.154Z,18.50
2018-04-24T11:45:57.152Z,17.30
2018-04-24T11:46:57.152Z,17.70
2018-04-24T11:47:57.151Z,18.20
2018-04-24T11:48:57.153Z,18.90
2018-04-24T11:49:57.149Z,16.60
2018-04-24T11:50:57.152Z,17.80
2018-04-24T11:51:57.151Z,16.60
2018-04-24T11:52:57.146Z,18.70
2018-04-24T11:53:57.145Z,15.80
2018-04-24T11:54:57.148Z,16.40
2018-04-24T11:55:57.147Z,15.30
2018-04-24T11:56:57.143Z,16.90
2018-04-24T11:57:57.141Z,17.30
2018-04-24T11:58:57.141Z,16.60
2018-04-24T11:59:57.138Z,17.20
2018-04-24T12:00:57.137Z,16.70
2018-04-24T12:01:57.137Z,17.00
2018-04-24T12:02:57.140Z,15.90
2018-04-24T12:03:57.135Z,17.90
2018-04-24T12:04:57.135Z,16.60
2018-04-24T12:05:57.133Z,16.00
2018-04-24T12:06:57.133Z,18.00
2018-04-24T12:07:57.131Z,16.70
2018-04-24T12:08:57.132Z,14.80
2018-04-24T12:09:57.177Z,15.00
2018-04-24T12:10:57.128Z,19.00
2018-04-24T12:11:57.127Z,15.70
2018-04-24T12:12:57.129Z,18.50
2018-04-24T12:13:57.134Z,15.90
2018-04-24T12:14:57.123Z,15.30
2018-04-24T12:15:57.154Z,17.80
2018-04-24T12:16:57.122Z,18.10
2018-04-24T12:17:57.121Z,17.10
2018-04-24T12:18:57.132Z,17.40
2018-04-24T12:19:57.119Z,17.10
2018-04-24T12:20:57.119Z,17.70
2018-04-24T12:21:57.118Z,19.60